Time;durP1;ratioP1;P1;durP2;ratioP2;P2;SDS_P1;SDS_P2;PMS_P1;PMS_P2;Temp;Humidity;BMP_temperature;BMP_pressure;BME280_temperature;BME280_humidity;BME280_pressure;Samples;Min_cycle;Max_cycle;Signal;HPM_P1;HPM_P2
2022/05/27 00:00:30;;;;;;;5.18;2.10;;;;;;;16.59;53.38;100248.13;30861741;28;104515;-72
2022/05/27 00:15:30;;;;;;;2.75;1.40;;;;;;;16.48;53.91;100227.25;30858753;28;96744;-72
2022/05/27 00:30:30;;;;;;;5.30;2.05;;;;;;;16.34;54.59;100213.81;30858934;28;96886;-72
2022/05/27 00:45:34;;;;;;;3.10;1.38;;;;;;;16.40;54.55;100199.56;30857454;28;100958;-72
2022/05/27 01:00:36;;;;;;;3.07;1.30;;;;;;;16.39;54.39;100180.94;30856600;28;96867;-72
2022/05/27 01:15:36;;;;;;;2.77;1.50;;;;;;;16.44;54.16;100169.56;30855320;28;96732;-72
2022/05/27 01:30:48;;;;;;;2.08;1.35;;;;;;;16.46;54.08;100152.19;30854821;28;96766;-72
2022/05/27 01:45:58;;;;;;;6.53;1.97;;;;;;;16.39;53.91;100146.00;30853730;28;96800;-72
2022/05/27 02:00:59;;;;;;;3.13;1.60;;;;;;;16.27;54.50;100123.47;30859067;28;96709;-72
2022/05/27 02:16:01;;;;;;;3.53;1.17;;;;;;;16.28;54.26;100101.75;30872023;28;96782;-72
2022/05/27 02:31:07;;;;;;;3.45;1.20;;;;;;;16.34;54.18;100097.41;30870268;28;97294;-73
2022/05/27 02:46:26;;;;;;;3.47;1.50;;;;;;;16.34;54.25;100083.97;30868855;28;96761;-72
2022/05/27 03:01:27;;;;;;;2.40;1.20;;;;;;;16.38;53.91;100053.75;30866906;28;96900;-72
2022/05/27 03:16:33;;;;;;;2.92;1.30;;;;;;;16.45;53.83;100042.16;30892664;28;97168;-72
2022/05/27 03:31:45;;;;;;;3.93;1.63;;;;;;;16.54;53.77;100035.50;30987218;28;96799;-72
2022/05/27 03:46:49;;;;;;;2.10;1.20;;;;;;;16.64;53.58;100027.78;30985742;28;96698;-72
2022/05/27 04:01:52;;;;;;;2.67;1.30;;;;;;;16.70;53.54;100020.72;30983732;28;96954;-72
2022/05/27 04:17:27;;;;;;;6.97;1.83;;;;;;;16.75;53.76;100004.78;30979946;28;96730;-72
2022/05/27 04:32:13;;;;;;;3.63;1.20;;;;;;;16.72;54.23;100008.72;30978487;28;96745;-72
2022/05/27 04:47:13;;;;;;;3.00;1.23;;;;;;;16.62;55.35;99988.72;30978053;28;96770;-71
2022/05/27 05:02:14;;;;;;;4.22;1.33;;;;;;;16.38;57.29;99983.84;30977197;28;96730;-72
2022/05/27 05:17:15;;;;;;;4.23;1.97;;;;;;;16.60;57.34;99977.34;30968302;28;98247;-73
2022/05/27 05:32:16;;;;;;;4.38;1.45;;;;;;;16.94;55.82;99964.56;30978271;28;97368;-74
2022/05/27 05:47:16;;;;;;;3.13;1.20;;;;;;;17.17;55.51;99963.97;30995093;28;108900;-71
2022/05/27 06:02:16;;;;;;;4.68;1.50;;;;;;;17.50;54.91;99947.53;30994011;28;96960;-71
2022/05/27 06:17:17;;;;;;;4.90;1.40;;;;;;;17.91;54.03;99938.00;30992897;28;96781;-72
2022/05/27 06:47:38;;;;;;;2.90;1.10;;;;;;;17.68;53.85;99945.91;30990773;28;97158;-72
2022/05/27 07:02:38;;;;;;;2.63;1.37;;;;;;;17.68;54.73;99952.09;30985306;28;98035;-74
2022/05/27 07:17:38;;;;;;;4.45;1.50;;;;;;;17.50;55.43;99944.81;30982170;28;97421;-74
2022/05/27 07:32:39;;;;;;;5.50;1.70;;;;;;;17.23;57.01;99958.50;30983863;28;107778;-73
2022/05/27 07:47:39;;;;;;;6.50;2.40;;;;;;;16.96;58.83;99973.22;30983732;28;108450;-74
2022/05/27 08:02:40;;;;;;;5.60;2.25;;;;;;;16.53;61.26;99980.88;30983688;28;97645;-73
2022/05/27 08:17:42;;;;;;;2.97;2.08;;;;;;;16.13;64.34;99985.59;30981517;28;105794;-73
2022/05/27 08:32:43;;;;;;;3.77;2.27;;;;;;;15.68;67.05;100005.13;30979450;28;97249;-73
2022/05/27 08:47:54;;;;;;;3.55;1.90;;;;;;;15.31;68.81;100016.25;30975677;28;97111;-70
2022/05/27 09:03:01;;;;;;;4.30;1.33;;;;;;;14.83;68.01;100027.94;30974125;28;96925;-70
2022/05/27 09:18:14;;;;;;;2.80;1.50;;;;;;;14.52;67.71;100033.78;30972242;28;97932;-72
2022/05/27 09:33:20;;;;;;;3.20;1.57;;;;;;;14.28;67.89;100048.50;30970984;28;97370;-72
2022/05/27 09:48:21;;;;;;;3.53;1.70;;;;;;;13.93;68.63;100067.25;30972307;28;97058;-73
2022/05/27 10:03:26;;;;;;;5.32;1.67;;;;;;;14.08;69.52;100077.84;30969231;28;98517;-72
2022/05/27 10:18:26;;;;;;;4.97;2.53;;;;;;;14.21;69.34;100061.88;30973179;28;97606;-70
2022/05/27 10:33:53;;;;;;;5.95;2.50;;;;;;;14.30;70.33;100078.63;30988443;28;97601;-70
2022/05/27 10:49:04;;;;;;;6.20;1.80;;;;;;;14.43;69.80;100062.59;30986795;28;96837;-72
2022/05/27 11:04:25;;;;;;;4.27;2.43;;;;;;;14.99;70.92;100052.75;30883877;28;97067;-76
2022/05/27 11:19:50;;;;;;;3.83;2.17;;;;;;;14.85;70.32;100028.56;30856726;28;97079;-74
2022/05/27 11:35:16;;;;;;;3.13;1.87;;;;;;;14.20;70.17;100044.97;30860247;28;96928;-74
2022/05/27 11:50:47;;;;;;;3.93;1.57;;;;;;;13.81;70.71;100008.06;30860293;28;97089;-74
2022/05/27 12:05:54;;;;;;;2.20;1.43;;;;;;;13.61;70.81;100022.13;30857392;28;96683;-69
2022/05/27 12:20:56;;;;;;;2.27;1.30;;;;;;;13.37;71.13;99983.25;30841943;28;96891;-73
2022/05/27 12:36:01;;;;;;;3.37;1.77;;;;;;;13.72;71.88;99996.66;30852566;28;97520;-73
2022/05/27 12:51:08;;;;;;;4.23;1.80;;;;;;;15.10;69.35;99966.28;30849367;28;97562;-74
2022/05/27 13:06:11;;;;;;;3.17;1.50;;;;;;;16.30;66.41;99953.72;30850460;28;96659;-75
2022/05/27 13:21:31;;;;;;;3.23;1.77;;;;;;;16.05;63.44;99973.25;30907568;28;97157;-74
2022/05/27 13:36:48;;;;;;;4.43;2.00;;;;;;;15.48;64.58;99917.34;30957038;28;97060;-73
2022/05/27 13:51:50;;;;;;;2.67;1.60;;;;;;;16.79;60.47;99887.63;30969679;28;97117;-75
2022/05/27 14:06:51;;;;;;;2.80;1.40;;;;;;;17.47;58.80;99887.88;30991594;28;97162;-72
2022/05/27 14:37:47;;;;;;;3.70;2.40;;;;;;;17.41;56.42;99885.06;30990264;28;97063;-73
2022/05/27 14:52:54;;;;;;;2.87;1.70;;;;;;;17.39;55.42;99849.44;30985673;28;97199;-72
2022/05/27 15:08:00;;;;;;;4.40;1.70;;;;;;;17.46;56.02;99830.53;30980744;28;97357;-72
2022/05/27 15:23:05;;;;;;;7.53;3.10;;;;;;;17.40;55.19;99828.72;30984912;28;96805;-73
2022/05/27 15:38:06;;;;;;;3.60;2.00;;;;;;;17.02;56.51;99827.06;30981718;28;97229;-74
2022/05/27 15:53:06;;;;;;;3.70;2.00;;;;;;;16.54;56.62;99817.72;30987496;28;97497;-73
2022/05/27 16:08:08;;;;;;;3.65;2.63;;;;;;;15.76;58.65;99873.31;30978723;28;102961;-73
2022/05/27 16:23:10;;;;;;;4.20;2.00;;;;;;;14.88;60.26;99840.44;30884588;28;97239;-73
2022/05/27 16:38:11;;;;;;;5.07;2.33;;;;;;;14.70;62.10;99821.47;30852454;28;97478;-74
2022/05/27 16:53:11;;;;;;;3.08;1.48;;;;;;;15.00;61.06;99837.13;30972443;28;97087;-72
2022/05/27 17:08:11;;;;;;;2.97;1.50;;;;;;;14.68;60.62;99840.44;30972874;28;97471;-72
2022/05/27 17:23:12;;;;;;;2.75;1.50;;;;;;;14.61;60.70;99839.59;30979922;28;97499;-72
2022/05/27 17:38:12;;;;;;;6.72;1.67;;;;;;;14.33;60.38;99837.88;30971360;28;96758;-75
2022/05/27 17:53:13;;;;;;;3.75;1.48;;;;;;;14.14;60.59;99836.00;30971693;28;96762;-74
2022/05/27 18:08:16;;;;;;;7.50;1.92;;;;;;;14.16;60.94;99850.84;30969603;28;97135;-73
2022/05/27 18:23:17;;;;;;;5.90;1.87;;;;;;;13.66;62.03;99842.22;30967822;28;96790;-74
2022/05/27 18:38:17;;;;;;;2.95;1.45;;;;;;;13.44;62.85;99861.03;30969779;28;98032;-73
2022/05/27 18:53:17;;;;;;;4.20;2.35;;;;;;;13.24;63.56;99879.59;30983514;28;97935;-73
2022/05/27 19:08:18;;;;;;;5.97;1.70;;;;;;;12.94;64.92;99906.53;30985482;28;98098;-71
2022/05/27 19:23:18;;;;;;;8.02;2.15;;;;;;;12.81;65.12;99923.28;30982675;28;97499;-73
2022/05/27 19:38:20;;;;;;;5.18;2.30;;;;;;;13.01;65.47;99968.94;31032670;28;98063;-72
2022/05/27 19:53:20;;;;;;;3.97;1.13;;;;;;;12.45;65.04;99979.44;31042807;28;98452;-74
2022/05/27 20:08:20;;;;;;;2.95;1.50;;;;;;;11.90;62.68;99993.06;30978950;28;98736;-72
2022/05/27 20:23:21;;;;;;;4.32;1.40;;;;;;;11.51;61.81;99988.81;30980507;28;97078;-71
2022/05/27 20:38:21;;;;;;;6.28;1.50;;;;;;;11.13;61.59;99968.31;30977773;28;96735;-71
2022/05/27 20:53:21;;;;;;;5.53;1.55;;;;;;;10.92;61.78;99981.47;31004504;28;96734;-71
2022/05/27 21:23:41;;;;;;;5.70;2.17;;;;;;;11.62;61.18;99998.22;30976235;28;96583;-71
2022/05/27 21:38:43;;;;;;;7.53;1.73;;;;;;;11.34;60.17;99990.78;30975500;28;96880;-74
2022/05/27 21:53:45;;;;;;;9.27;1.67;;;;;;;11.04;61.06;99988.03;30975119;28;98007;-73
2022/05/27 22:08:45;;;;;;;2.27;1.13;;;;;;;10.94;60.28;99982.13;30971293;28;97016;-74
2022/05/27 22:23:46;;;;;;;2.03;1.00;;;;;;;10.66;60.68;99969.31;30980717;28;96970;-73
2022/05/27 22:38:47;;;;;;;4.27;1.47;;;;;;;10.82;61.26;99971.84;30986192;28;97181;-73
2022/05/27 22:53:48;;;;;;;4.77;1.80;;;;;;;10.50;61.31;99976.38;30983776;28;96644;-74
2022/05/27 23:08:48;;;;;;;8.55;2.28;;;;;;;10.05;62.79;99953.94;30888713;28;98314;-74
2022/05/27 23:23:48;;;;;;;10.35;2.88;;;;;;;9.35;64.39;99955.47;30870456;28;97351;-74
2022/05/27 23:38:49;;;;;;;9.38;2.55;;;;;;;8.88;66.60;99948.16;30864976;28;110825;-72
2022/05/27 23:53:53;;;;;;;4.82;2.47;;;;;;;8.92;67.27;99934.38;30863317;28;115703;-74
